Time;durP1;ratioP1;P1;durP2;ratioP2;P2;SDS_P1;SDS_P2;PMS_P1;PMS_P2;Temp;Humidity;BMP_temperature;BMP_pressure;BME280_temperature;BME280_humidity;BME280_pressure;Samples;Min_cycle;Max_cycle;Signal;HPM_P1;HPM_P2
2022/07/10 00:02:17;;;;;;;2.85;1.40;;;21.90;53.60;;;;;;5027423;28;20097;-71
2022/07/10 00:04:43;;;;;;;3.08;1.42;;;21.90;53.70;;;;;;5028354;28;20048;-71
2022/07/10 00:07:08;;;;;;;3.35;1.45;;;21.90;53.80;;;;;;5027006;28;20029;-71
2022/07/10 00:09:34;;;;;;;2.70;1.40;;;21.80;54.10;;;;;;5023853;28;20195;-71
2022/07/10 00:12:00;;;;;;;2.80;1.40;;;21.80;54.10;;;;;;5023303;28;20029;-71
2022/07/10 00:14:25;;;;;;;3.10;1.40;;;21.70;54.20;;;;;;5027993;28;20519;-71
2022/07/10 00:16:51;;;;;;;3.83;1.40;;;21.70;54.30;;;;;;5021896;28;20065;-71
2022/07/10 00:19:17;;;;;;;3.15;1.20;;;21.60;54.40;;;;;;5026233;28;20025;-71
2022/07/10 00:21:42;;;;;;;3.67;1.30;;;21.60;54.70;;;;;;5026877;28;20547;-71
2022/07/10 00:24:10;;;;;;;3.60;1.50;;;21.50;54.90;;;;;;5026869;28;20053;-71
2022/07/10 00:26:36;;;;;;;3.25;1.40;;;21.40;55.30;;;;;;5024565;28;20037;-71
2022/07/10 00:29:01;;;;;;;3.20;1.30;;;21.40;55.60;;;;;;5027880;28;20419;-71
2022/07/10 00:31:27;;;;;;;2.55;1.20;;;21.40;55.80;;;;;;5027488;28;20256;-71
2022/07/10 00:33:52;;;;;;;2.72;1.30;;;21.30;56.10;;;;;;5027487;28;20040;-71
2022/07/10 00:36:18;;;;;;;3.80;1.40;;;21.20;55.50;;;;;;5026537;28;20495;-70
2022/07/10 00:38:44;;;;;;;3.63;1.50;;;21.20;56.40;;;;;;5026949;28;20029;-71
2022/07/10 00:41:09;;;;;;;4.45;1.35;;;21.20;56.60;;;;;;5023124;28;20029;-71
2022/07/10 00:43:58;;;;;;;4.18;1.50;;;21.10;56.60;;;;;;5027910;28;20514;-71
2022/07/10 00:46:25;;;;;;;3.55;1.42;;;21.10;56.80;;;;;;5027485;28;20033;-71
2022/07/10 00:48:51;;;;;;;4.47;1.33;;;21.10;57.00;;;;;;5026711;28;20555;-71
2022/07/10 00:51:18;;;;;;;3.03;1.30;;;21.00;57.10;;;;;;5026086;28;20777;-71
2022/07/10 00:53:48;;;;;;;3.58;1.35;;;20.90;57.20;;;;;;5024329;28;20030;-71
2022/07/10 00:56:21;;;;;;;3.70;1.38;;;20.90;57.30;;;;;;5024473;28;20025;-71
2022/07/10 00:58:47;;;;;;;3.55;1.42;;;20.80;57.40;;;;;;5025370;28;20068;-71
2022/07/10 01:01:13;;;;;;;3.28;1.67;;;20.80;57.50;;;;;;5024754;28;20029;-71
2022/07/10 01:03:39;;;;;;;4.05;1.45;;;20.70;57.50;;;;;;5025924;28;20029;-71
2022/07/10 01:06:05;;;;;;;3.60;1.58;;;20.70;56.90;;;;;;5026198;28;20036;-71
2022/07/10 01:08:32;;;;;;;2.83;1.38;;;20.70;57.70;;;;;;5025006;28;20463;-70
2022/07/10 01:10:58;;;;;;;4.55;1.58;;;20.70;57.80;;;;;;5026653;28;20034;-70
2022/07/10 01:13:24;;;;;;;4.07;1.70;;;20.70;57.60;;;;;;5025630;28;20480;-70
2022/07/10 01:15:52;;;;;;;6.00;1.60;;;20.60;57.70;;;;;;5022683;28;20096;-70
2022/07/10 01:18:18;;;;;;;4.88;1.58;;;20.60;58.00;;;;;;5025875;28;20458;-71
2022/07/10 01:20:44;;;;;;;3.55;1.50;;;20.60;58.30;;;;;;5025915;28;20033;-70
2022/07/10 01:23:09;;;;;;;2.65;1.50;;;20.50;58.30;;;;;;5026498;28;20033;-70
2022/07/10 01:25:35;;;;;;;3.33;1.67;;;20.40;58.40;;;;;;5026948;28;20041;-70
2022/07/10 01:28:01;;;;;;;3.25;1.50;;;20.40;58.50;;;;;;5024662;28;20018;-71
2022/07/10 01:30:27;;;;;;;2.80;1.50;;;20.30;58.60;;;;;;5031528;28;20040;-70
2022/07/10 01:32:53;;;;;;;2.50;1.50;;;20.40;58.50;;;;;;5025119;28;20415;-71
2022/07/10 01:35:19;;;;;;;3.05;1.40;;;20.30;58.20;;;;;;5026772;28;20119;-70
2022/07/10 01:37:45;;;;;;;2.85;1.48;;;20.20;58.30;;;;;;5028156;28;20461;-70
2022/07/10 01:40:12;;;;;;;3.20;1.35;;;20.20;58.20;;;;;;5026612;28;20498;-70
2022/07/10 01:42:40;;;;;;;3.00;1.70;;;20.10;58.10;;;;;;5025746;28;20497;-70
2022/07/10 01:45:08;;;;;;;3.65;1.65;;;20.10;58.40;;;;;;5017353;28;20421;-70
2022/07/10 01:47:34;;;;;;;3.45;1.50;;;20.00;58.30;;;;;;5025081;28;20492;-70
2022/07/10 01:50:00;;;;;;;3.40;1.58;;;20.10;58.40;;;;;;5025786;28;20040;-70
2022/07/10 01:52:26;;;;;;;2.90;1.50;;;20.00;58.10;;;;;;5025327;28;20029;-70
2022/07/10 01:54:51;;;;;;;3.05;1.63;;;20.00;57.90;;;;;;5026349;28;20037;-70
2022/07/10 01:57:17;;;;;;;3.25;1.55;;;19.90;58.10;;;;;;5025674;28;20057;-70
2022/07/10 01:59:43;;;;;;;3.20;1.67;;;19.90;58.40;;;;;;5032005;28;20038;-70
2022/07/10 02:02:09;;;;;;;3.10;1.60;;;19.80;58.70;;;;;;5024228;28;20022;-70
2022/07/10 02:04:41;;;;;;;3.65;1.70;;;19.80;60.00;;;;;;5024824;28;20034;-70
2022/07/10 02:07:11;;;;;;;3.47;1.67;;;19.70;59.30;;;;;;5024040;28;20570;-70
2022/07/10 02:09:38;;;;;;;3.03;1.60;;;19.70;59.60;;;;;;5022013;28;20045;-70
2022/07/10 02:12:05;;;;;;;3.63;1.60;;;19.60;59.80;;;;;;5025710;28;20041;-70
2022/07/10 02:14:31;;;;;;;3.20;1.55;;;19.60;60.10;;;;;;5025814;28;20030;-70
2022/07/10 02:16:57;;;;;;;3.33;1.60;;;19.60;60.30;;;;;;5029368;28;20032;-71
2022/07/10 02:19:23;;;;;;;5.35;1.80;;;19.60;61.60;;;;;;5030572;28;20602;-71
2022/07/10 02:21:49;;;;;;;3.80;1.77;;;19.50;61.00;;;;;;5026214;28;20037;-70
2022/07/10 02:24:15;;;;;;;3.30;1.70;;;19.50;61.00;;;;;;5026035;28;20021;-70
2022/07/10 02:26:41;;;;;;;3.20;1.60;;;19.50;61.10;;;;;;5026220;28;20388;-70
2022/07/10 02:29:06;;;;;;;4.65;1.70;;;19.50;61.00;;;;;;5035169;28;20095;-71
2022/07/10 02:31:34;;;;;;;4.78;1.88;;;19.50;60.90;;;;;;5030371;28;20552;-71
2022/07/10 02:34:01;;;;;;;3.13;1.60;;;19.40;61.70;;;;;;5029190;28;20041;-70
2022/07/10 02:36:27;;;;;;;5.57;1.60;;;19.40;60.30;;;;;;5027052;28;20101;-70
2022/07/10 02:38:52;;;;;;;4.55;1.77;;;19.30;60.20;;;;;;5028460;28;20063;-71
2022/07/10 02:41:18;;;;;;;5.00;1.83;;;19.20;60.20;;;;;;5025833;28;20052;-70
2022/07/10 02:43:43;;;;;;;3.38;2.08;;;19.20;60.50;;;;;;5030866;28;20544;-70
2022/07/10 02:46:09;;;;;;;4.60;1.77;;;19.10;60.60;;;;;;5028371;28;20025;-71
2022/07/10 02:48:35;;;;;;;4.22;1.65;;;19.00;60.80;;;;;;5023851;28;20117;-70
2022/07/10 02:51:00;;;;;;;4.20;2.00;;;19.00;60.80;;;;;;5020260;28;20492;-70
2022/07/10 02:53:26;;;;;;;4.13;1.80;;;19.00;60.80;;;;;;5028258;28;20082;-70
2022/07/10 02:55:52;;;;;;;3.03;1.70;;;19.00;61.10;;;;;;5029695;28;20029;-70
2022/07/10 02:58:19;;;;;;;3.85;2.00;;;19.00;61.30;;;;;;5028511;28;20664;-70
2022/07/10 03:00:45;;;;;;;4.28;2.00;;;19.00;61.60;;;;;;5025619;28;20038;-70
2022/07/10 03:03:11;;;;;;;4.20;1.80;;;18.90;61.80;;;;;;5028390;28;20033;-70
2022/07/10 03:05:36;;;;;;;3.47;1.75;;;18.90;61.90;;;;;;5026598;28;20092;-70
2022/07/10 03:08:02;;;;;;;3.53;1.90;;;18.90;61.90;;;;;;5027871;28;20124;-71
2022/07/10 03:10:28;;;;;;;5.43;1.83;;;18.90;61.90;;;;;;5029450;28;20029;-70
2022/07/10 03:12:54;;;;;;;8.88;1.70;;;18.90;61.70;;;;;;5027627;28;20025;-70
2022/07/10 03:15:19;;;;;;;10.40;2.00;;;18.80;62.50;;;;;;5027162;28;20026;-70
2022/07/10 03:17:45;;;;;;;6.72;2.00;;;18.70;61.30;;;;;;5028353;28;20492;-70
2022/07/10 03:20:11;;;;;;;4.85;1.80;;;18.60;61.10;;;;;;5026367;28;20029;-70
2022/07/10 03:22:37;;;;;;;4.07;2.05;;;18.60;61.10;;;;;;5028311;28;21805;-70
2022/07/10 03:25:03;;;;;;;4.57;1.73;;;18.60;61.10;;;;;;5026774;28;20048;-70
2022/07/10 03:27:29;;;;;;;4.95;2.00;;;18.60;61.10;;;;;;5024292;28;20477;-70
2022/07/10 03:29:54;;;;;;;3.25;1.88;;;18.50;61.20;;;;;;5030050;28;20037;-70
2022/07/10 03:32:20;;;;;;;5.78;2.08;;;18.40;61.30;;;;;;5027205;28;20076;-70
2022/07/10 03:34:46;;;;;;;3.80;1.98;;;18.40;61.80;;;;;;5028112;28;20506;-70
2022/07/10 03:37:11;;;;;;;4.13;1.80;;;18.30;62.00;;;;;;5027287;28;20056;-70
2022/07/10 03:39:37;;;;;;;3.92;2.00;;;18.30;62.10;;;;;;5026735;28;20066;-70
2022/07/10 03:42:03;;;;;;;3.22;1.88;;;18.30;62.20;;;;;;5026761;28;20033;-70
2022/07/10 03:44:29;;;;;;;4.43;1.80;;;18.30;62.40;;;;;;5027588;28;20037;-70
2022/07/10 03:46:54;;;;;;;3.90;1.98;;;18.30;62.50;;;;;;5027890;28;20108;-70
2022/07/10 03:49:20;;;;;;;3.45;1.70;;;18.20;62.50;;;;;;5028879;28;20068;-70
2022/07/10 03:51:46;;;;;;;4.22;1.85;;;18.10;62.30;;;;;;5027518;28;20401;-70
2022/07/10 03:54:12;;;;;;;5.20;1.75;;;18.00;62.40;;;;;;5026537;28;20128;-70
2022/07/10 03:59:22;;;;;;;4.63;1.70;;;17.90;62.40;;;;;;5028121;28;20048;-70
2022/07/10 04:01:48;;;;;;;3.70;1.90;;;17.90;62.40;;;;;;5027807;28;20037;-70
2022/07/10 04:04:13;;;;;;;3.67;1.70;;;17.90;61.50;;;;;;5026518;28;20025;-70
2022/07/10 04:06:39;;;;;;;2.88;1.60;;;17.80;62.20;;;;;;5028168;28;20484;-70
2022/07/10 04:09:08;;;;;;;3.67;1.77;;;17.90;62.00;;;;;;5025552;28;20045;-70
2022/07/10 04:11:34;;;;;;;3.25;1.80;;;17.80;61.90;;;;;;5026181;28;20531;-70
2022/07/10 04:13:59;;;;;;;5.82;1.60;;;17.80;61.80;;;;;;5021545;28;20120;-70
2022/07/10 04:16:25;;;;;;;3.88;1.77;;;17.80;61.50;;;;;;5026507;28;20100;-70
2022/07/10 04:18:51;;;;;;;3.15;1.70;;;17.80;61.50;;;;;;5025684;28;20029;-70
2022/07/10 04:21:16;;;;;;;5.78;1.63;;;17.80;60.50;;;;;;5025479;28;20057;-70
2022/07/10 04:23:42;;;;;;;3.65;1.80;;;17.80;60.70;;;;;;5027096;28;20554;-70
2022/07/10 04:26:08;;;;;;;5.18;2.00;;;17.70;61.30;;;;;;5017697;28;20033;-70
2022/07/10 04:28:33;;;;;;;6.60;1.98;;;17.70;62.00;;;;;;5028068;28;20041;-70
2022/07/10 04:30:59;;;;;;;4.72;1.85;;;17.70;62.30;;;;;;5025741;28;20029;-70
2022/07/10 04:33:27;;;;;;;4.40;1.85;;;17.70;62.50;;;;;;5027556;28;20040;-70
2022/07/10 04:35:53;;;;;;;5.90;1.90;;;17.70;62.90;;;;;;5027747;28;20029;-70
2022/07/10 04:38:19;;;;;;;4.35;1.92;;;17.70;63.20;;;;;;5025914;28;20018;-70
2022/07/10 04:40:45;;;;;;;3.85;1.77;;;17.70;63.40;;;;;;5027331;28;20112;-70
2022/07/10 04:43:11;;;;;;;5.85;2.00;;;17.70;63.50;;;;;;5025587;28;20026;-70
2022/07/10 04:45:39;;;;;;;5.45;2.00;;;17.70;63.40;;;;;;5027157;28;20041;-70
2022/07/10 04:48:05;;;;;;;4.28;2.00;;;17.70;63.20;;;;;;5026100;28;20399;-70
2022/07/10 04:50:31;;;;;;;4.85;2.00;;;17.70;63.00;;;;;;5023974;28;20029;-69
2022/07/10 04:52:57;;;;;;;4.85;1.80;;;17.70;62.90;;;;;;5026515;28;20553;-70
2022/07/10 04:55:23;;;;;;;7.60;2.20;;;17.70;62.80;;;;;;5021957;28;20052;-70
2022/07/10 04:57:49;;;;;;;5.80;2.20;;;17.70;62.60;;;;;;5024364;28;20029;-70
2022/07/10 05:00:15;;;;;;;5.53;1.90;;;17.80;62.80;;;;;;5026839;28;20411;-70
2022/07/10 05:02:41;;;;;;;5.82;2.10;;;17.80;63.00;;;;;;5024863;28;20101;-70
2022/07/10 05:05:08;;;;;;;3.50;1.90;;;17.80;63.20;;;;;;5020932;28;20051;-70
2022/07/10 05:07:33;;;;;;;3.38;1.98;;;17.80;63.50;;;;;;5024698;28;20548;-70
2022/07/10 05:10:00;;;;;;;3.33;1.90;;;17.80;63.60;;;;;;5021989;28;20041;-70
2022/07/10 05:12:26;;;;;;;4.10;2.00;;;17.80;63.80;;;;;;5029008;28;20025;-71
2022/07/10 05:14:52;;;;;;;6.40;1.90;;;17.90;63.90;;;;;;5020300;28;20182;-71
2022/07/10 05:17:18;;;;;;;5.18;2.00;;;18.00;62.90;;;;;;5023358;28;20437;-71
2022/07/10 05:19:43;;;;;;;3.92;2.10;;;18.00;63.70;;;;;;5022685;28;20172;-71
2022/07/10 05:22:09;;;;;;;4.85;2.15;;;18.00;63.70;;;;;;5024673;28;20586;-71
2022/07/10 05:24:36;;;;;;;5.57;2.00;;;;;;;;;;5025151;28;20116;-71
2022/07/10 05:27:02;;;;;;;6.88;2.28;;;18.10;63.50;;;;;;5026012;28;20025;-71
2022/07/10 05:29:28;;;;;;;3.67;2.20;;;18.20;64.60;;;;;;5023500;28;20042;-71
2022/07/10 05:31:57;;;;;;;5.25;2.10;;;18.20;64.90;;;;;;5024187;28;20518;-71
2022/07/10 05:34:22;;;;;;;5.18;2.22;;;18.30;65.00;;;;;;5026100;28;20029;-71
2022/07/10 05:36:48;;;;;;;4.70;2.05;;;18.30;65.00;;;;;;5024861;28;20025;-71
2022/07/10 05:39:14;;;;;;;4.45;2.10;;;18.40;65.00;;;;;;5023607;28;20026;-71
2022/07/10 05:41:39;;;;;;;3.50;2.03;;;18.50;64.80;;;;;;5024527;28;20033;-70
2022/07/10 05:44:05;;;;;;;3.67;1.80;;;18.30;64.70;;;;;;5025778;28;20033;-70
2022/07/10 05:46:31;;;;;;;6.63;1.80;;;18.60;64.80;;;;;;5024423;28;20022;-70
2022/07/10 05:48:56;;;;;;;3.83;1.95;;;18.70;64.50;;;;;;5024460;28;20045;-70
2022/07/10 05:51:22;;;;;;;4.65;1.75;;;18.80;64.20;;;;;;5024883;28;20052;-69
2022/07/10 05:53:48;;;;;;;2.85;1.60;;;19.00;63.50;;;;;;5028904;28;20037;-70
2022/07/10 05:56:13;;;;;;;3.47;1.63;;;19.10;62.70;;;;;;5029122;28;20412;-72
2022/07/10 05:58:39;;;;;;;5.32;1.55;;;19.30;62.10;;;;;;5035370;28;20025;-70
2022/07/10 06:01:05;;;;;;;4.35;1.27;;;19.40;61.30;;;;;;5027915;28;20485;-70
2022/07/10 06:03:30;;;;;;;2.78;1.20;;;19.70;60.50;;;;;;5026177;28;20045;-70
2022/07/10 06:05:59;;;;;;;3.30;1.33;;;19.80;59.80;;;;;;5026630;28;20029;-70
2022/07/10 06:08:25;;;;;;;2.42;1.30;;;20.00;58.90;;;;;;5026972;28;20191;-70
2022/07/10 06:10:51;;;;;;;3.08;1.40;;;20.20;59.40;;;;;;5026152;28;20559;-70
2022/07/10 06:13:16;;;;;;;6.03;2.53;;;20.30;57.70;;;;;;5023937;28;20029;-70
2022/07/10 06:15:42;;;;;;;7.63;2.40;;;20.50;56.70;;;;;;5027800;28;20037;-71
2022/07/10 06:18:08;;;;;;;3.30;1.50;;;20.80;52.10;;;;;;5028267;28;20038;-72
2022/07/10 06:20:33;;;;;;;4.07;1.50;;;20.80;52.80;;;;;;5030330;28;20028;-71
2022/07/10 06:22:59;;;;;;;6.68;1.45;;;20.90;52.90;;;;;;5028579;28;20037;-68
2022/07/10 06:25:25;;;;;;;2.75;1.17;;;21.00;52.30;;;;;;5027161;28;20049;-71
2022/07/10 06:27:50;;;;;;;6.60;1.60;;;21.20;51.20;;;;;;5025803;28;20030;-69
2022/07/10 06:30:16;;;;;;;5.03;1.42;;;21.30;48.90;;;;;;5026892;28;20454;-73
2022/07/10 06:32:44;;;;;;;4.10;1.27;;;21.40;48.20;;;;;;5028036;28;20057;-72
2022/07/10 06:35:10;;;;;;;4.70;1.30;;;21.50;47.30;;;;;;5028340;28;20029;-72
2022/07/10 06:37:36;;;;;;;3.28;1.20;;;21.50;47.70;;;;;;5029168;28;20400;-70
2022/07/10 06:40:02;;;;;;;4.50;1.30;;;21.50;46.40;;;;;;5025856;28;20156;-72
2022/07/10 06:42:28;;;;;;;5.38;1.42;;;21.60;45.70;;;;;;5027538;28;20034;-72
2022/07/10 06:44:53;;;;;;;3.88;1.30;;;21.80;45.80;;;;;;5026458;28;20025;-72
2022/07/10 06:50:08;;;;;;;2.65;1.05;;;22.10;44.40;;;;;;5030689;28;20091;-69
2022/07/10 06:52:35;;;;;;;4.97;1.20;;;22.40;43.20;;;;;;5031617;28;20021;-68
2022/07/10 06:55:02;;;;;;;4.20;1.23;;;22.80;42.30;;;;;;5029073;28;20038;-70
2022/07/10 06:57:28;;;;;;;3.63;1.10;;;23.50;40.60;;;;;;5026710;28;20420;-70
2022/07/10 06:59:54;;;;;;;3.03;1.20;;;25.60;34.40;;;;;;5029709;28;20542;-71
2022/07/10 07:02:19;;;;;;;2.53;1.10;;;26.70;32.20;;;;;;5027161;28;20030;-73
2022/07/10 07:04:45;;;;;;;5.35;1.10;;;26.60;32.90;;;;;;5027706;28;20033;-72
2022/07/10 07:07:12;;;;;;;5.65;1.30;;;27.70;30.90;;;;;;5027244;28;20045;-70
2022/07/10 07:09:38;;;;;;;8.15;1.30;;;28.30;29.50;;;;;;5025009;28;20049;-71
2022/07/10 07:12:05;;;;;;;6.47;1.20;;;28.70;28.70;;;;;;5025101;28;20029;-71
2022/07/10 07:14:31;;;;;;;5.90;1.70;;;29.00;28.30;;;;;;5022543;28;20044;-71
2022/07/10 07:17:04;;;;;;;5.20;1.08;;;29.40;27.90;;;;;;5014084;28;20028;-69
2022/07/10 07:23:09;;;;;;;3.72;0.95;;;29.80;27.70;;;;;;5025994;28;20111;-71
2022/07/10 07:25:05;;;;;;;3.08;0.98;;;30.60;26.80;;;;;;5024826;28;20044;-72
2022/07/10 07:27:32;;;;;;;4.32;1.20;;;30.80;25.30;;;;;;5027479;28;20021;-70
2022/07/10 07:30:04;;;;;;;3.67;1.10;;;30.90;24.40;;;;;;5030309;28;20041;-71
2022/07/10 07:32:30;;;;;;;5.22;0.95;;;30.80;25.10;;;;;;5026265;28;20524;-70
2022/07/10 07:34:56;;;;;;;6.22;1.23;;;31.10;24.40;;;;;;5027123;28;20157;-70
2022/07/10 07:37:23;;;;;;;4.38;1.00;;;31.60;24.40;;;;;;5028539;28;20029;-71
2022/07/10 07:39:49;;;;;;;3.55;1.13;;;32.00;24.00;;;;;;5025444;28;20025;-70
2022/07/10 07:42:15;;;;;;;3.97;1.10;;;32.10;23.00;;;;;;5027780;28;20037;-69
2022/07/10 07:44:40;;;;;;;5.63;1.00;;;32.60;21.90;;;;;;5026222;28;20036;-70
2022/07/10 07:47:06;;;;;;;3.95;1.13;;;32.50;22.60;;;;;;5025736;28;20188;-69
2022/07/10 07:49:32;;;;;;;5.07;1.10;;;32.60;22.40;;;;;;5026226;28;20657;-71
2022/07/10 07:51:57;;;;;;;2.88;1.00;;;32.60;22.30;;;;;;5027490;28;20440;-71
2022/07/10 07:54:23;;;;;;;3.90;1.00;;;32.20;22.20;;;;;;5022640;28;20041;-72
2022/07/10 07:56:49;;;;;;;4.88;1.08;;;31.60;22.90;;;;;;5027597;28;20060;-72
2022/07/10 07:59:15;;;;;;;5.00;1.00;;;31.10;23.70;;;;;;5023166;28;20037;-72
2022/07/10 08:01:40;;;;;;;4.05;0.95;;;30.60;24.20;;;;;;5029425;28;20033;-72
2022/07/10 08:04:06;;;;;;;2.13;0.82;;;29.80;25.00;;;;;;5022755;28;20029;-71
2022/07/10 08:06:32;;;;;;;4.63;1.10;;;29.10;25.60;;;;;;5025083;28;20788;-72
2022/07/10 08:08:58;;;;;;;5.28;1.20;;;28.70;26.70;;;;;;5025430;28;20056;-72
2022/07/10 08:11:23;;;;;;;3.47;1.10;;;28.00;26.90;;;;;;5023868;28;20025;-71
2022/07/10 08:13:49;;;;;;;3.72;0.80;;;27.90;27.50;;;;;;5024253;28;20558;-72
2022/07/10 08:16:15;;;;;;;7.80;1.40;;;27.90;27.30;;;;;;5027973;28;20424;-70
2022/07/10 08:18:40;;;;;;;3.00;1.02;;;27.80;27.80;;;;;;5026168;28;20033;-68
2022/07/10 08:21:06;;;;;;;2.58;1.05;;;27.70;27.80;;;;;;5025014;28;20061;-69
2022/07/10 08:23:32;;;;;;;3.42;1.00;;;27.70;27.70;;;;;;5026140;28;20034;-68
2022/07/10 08:25:58;;;;;;;3.15;0.90;;;27.70;27.60;;;;;;5024301;28;20393;-71
2022/07/10 08:28:23;;;;;;;4.15;0.80;;;27.60;27.50;;;;;;5028546;28;20036;-70
2022/07/10 08:30:49;;;;;;;4.95;1.30;;;27.40;27.30;;;;;;5026115;28;20037;-70
2022/07/10 08:33:15;;;;;;;4.65;0.90;;;27.30;27.50;;;;;;5026471;28;20451;-70
2022/07/10 08:35:41;;;;;;;4.95;0.80;;;27.30;27.40;;;;;;5030239;28;20468;-69
2022/07/10 08:38:08;;;;;;;3.95;0.80;;;27.30;27.30;;;;;;5028257;28;20044;-69
2022/07/10 08:40:38;;;;;;;4.03;0.95;;;27.20;27.10;;;;;;5021771;28;20029;-69
2022/07/10 08:43:05;;;;;;;2.00;0.70;;;27.30;27.10;;;;;;5027539;28;20393;-69
2022/07/10 08:45:33;;;;;;;3.65;1.05;;;27.30;27.20;;;;;;5022266;28;20063;-69
2022/07/10 08:48:03;;;;;;;3.13;0.95;;;27.30;27.20;;;;;;5029359;28;20018;-71
2022/07/10 08:50:31;;;;;;;2.72;0.95;;;27.50;26.70;;;;;;5020163;28;20562;-70
2022/07/10 08:53:16;;;;;;;2.45;0.88;;;27.60;26.50;;;;;;5025922;28;20025;-69
2022/07/10 08:55:42;;;;;;;3.35;0.93;;;27.70;25.70;;;;;;5027754;28;20052;-69
2022/07/10 08:58:09;;;;;;;4.72;1.00;;;27.70;25.50;;;;;;5027106;28;20026;-69
2022/07/10 09:00:35;;;;;;;7.93;1.23;;;28.10;25.00;;;;;;5034797;28;20036;-69
2022/07/10 09:03:00;;;;;;;3.22;0.98;;;28.00;25.70;;;;;;5031792;28;20025;-69
2022/07/10 09:05:27;;;;;;;5.45;1.05;;;28.20;25.60;;;;;;5027598;28;20040;-69
2022/07/10 09:07:54;;;;;;;5.80;1.10;;;28.40;25.30;;;;;;5030015;28;20562;-68
2022/07/10 09:10:22;;;;;;;3.60;1.10;;;29.10;25.30;;;;;;5036567;28;20041;-69
2022/07/10 09:12:53;;;;;;;7.35;1.10;;;29.10;25.20;;;;;;5026451;28;20025;-71
2022/07/10 09:15:21;;;;;;;3.28;1.20;;;29.50;24.20;;;;;;5026850;28;20040;-69
2022/07/10 09:17:52;;;;;;;2.05;0.85;;;29.90;23.90;;;;;;5023251;28;20105;-68
2022/07/10 09:20:46;;;;;;;3.92;1.00;;;30.20;23.50;;;;;;5022999;28;20186;-70
2022/07/10 09:23:15;;;;;;;3.83;1.20;;;31.10;21.70;;;;;;5018469;28;20041;-68
2022/07/10 09:25:41;;;;;;;4.03;1.17;;;31.10;22.30;;;;;;5037909;28;20052;-70
2022/07/10 09:28:07;;;;;;;4.03;1.30;;;31.80;22.20;;;;;;5031053;28;20504;-70
2022/07/10 09:30:38;;;;;;;4.43;1.00;;;32.40;20.90;;;;;;5029832;28;20409;-69
2022/07/10 09:33:31;;;;;;;2.40;1.00;;;33.50;20.40;;;;;;5029347;28;20049;-70
2022/07/10 09:36:10;;;;;;;4.90;1.23;;;34.90;19.00;;;;;;5023243;28;20380;-70
2022/07/10 09:38:51;;;;;;;3.78;0.95;;;35.90;18.40;;;;;;5026649;28;20030;-70
2022/07/10 09:41:25;;;;;;;3.20;1.10;;;36.60;17.60;;;;;;5026584;28;20033;-69
2022/07/10 09:44:02;;;;;;;2.67;1.00;;;37.00;17.00;;;;;;5028343;28;21594;-70
2022/07/10 09:46:47;;;;;;;2.83;1.00;;;37.50;16.70;;;;;;5033706;28;20033;-68
2022/07/10 09:49:14;;;;;;;6.78;1.35;;;38.50;15.80;;;;;;5026023;28;20727;-67
2022/07/10 09:51:45;;;;;;;3.65;1.30;;;38.50;16.30;;;;;;5026405;28;20052;-68
2022/07/10 09:54:13;;;;;;;2.53;1.00;;;39.00;15.60;;;;;;5029795;28;20030;-67
2022/07/10 09:56:43;;;;;;;8.88;6.50;;;39.30;15.20;;;;;;5021297;28;20514;-68
2022/07/10 09:59:11;;;;;;;4.82;2.58;;;39.20;15.70;;;;;;5035853;28;20033;-68
2022/07/10 10:01:37;;;;;;;16.85;11.23;;;39.50;15.10;;;;;;5029991;28;20125;-70
2022/07/10 10:04:04;;;;;;;47.72;43.63;;;39.80;15.40;;;;;;5039049;28;20111;-68
2022/07/10 10:06:31;;;;;;;48.10;43.83;;;41.00;13.60;;;;;;5035952;28;20381;-68
2022/07/10 10:09:07;;;;;;;4.65;1.40;;;40.90;14.20;;;;;;5030950;28;20061;-69
2022/07/10 10:11:35;;;;;;;3.83;1.38;;;40.70;13.80;;;;;;5027713;28;20440;-70
2022/07/10 10:14:02;;;;;;;5.20;1.10;;;40.70;13.90;;;;;;5027267;28;20029;-67
2022/07/10 10:16:28;;;;;;;7.75;4.00;;;40.70;13.90;;;;;;5030474;28;20568;-70
2022/07/10 10:21:39;;;;;;;7.38;1.48;;;40.90;14.20;;;;;;5025830;28;20079;-68
2022/07/10 10:24:06;;;;;;;12.10;5.93;;;41.20;13.60;;;;;;5027878;28;20029;-68
2022/07/10 10:26:32;;;;;;;8.32;6.47;;;41.80;13.50;;;;;;5024546;28;20439;-69
2022/07/10 10:29:00;;;;;;;5.57;2.70;;;42.00;12.80;;;;;;5025883;28;20049;-68
2022/07/10 10:31:31;;;;;;;32.35;20.00;;;42.30;12.60;;;;;;5027161;28;20021;-69
2022/07/10 10:34:00;;;;;;;10.52;6.90;;;42.10;12.70;;;;;;5030683;28;20381;-69
2022/07/10 10:36:41;;;;;;;2.42;1.10;;;42.10;12.80;;;;;;5025482;28;20754;-69
2022/07/10 10:39:18;;;;;;;3.88;1.70;;;42.20;12.80;;;;;;5020010;28;20037;-69
2022/07/10 10:41:49;;;;;;;2.85;1.00;;;42.50;12.80;;;;;;5027791;28;20017;-71
2022/07/10 10:44:18;;;;;;;4.72;1.10;;;42.60;12.70;;;;;;5028061;28;20510;-69
2022/07/10 10:47:05;;;;;;;4.53;1.10;;;42.50;12.90;;;;;;5028497;28;20101;-69
2022/07/10 10:49:52;;;;;;;12.05;1.10;;;43.00;13.20;;;;;;5028690;28;20068;-69
2022/07/10 10:52:19;;;;;;;5.45;1.20;;;43.70;13.10;;;;;;5027080;28;20120;-70
2022/07/10 10:54:57;;;;;;;4.85;1.00;;;44.30;12.50;;;;;;5023501;28;20045;-69
2022/07/10 10:57:32;;;;;;;4.82;1.10;;;44.80;11.90;;;;;;5037512;28;20030;-69
2022/07/10 10:59:59;;;;;;;4.85;0.95;;;45.10;11.80;;;;;;5060279;28;20120;-69
2022/07/10 11:02:26;;;;;;;3.33;0.93;;;45.20;11.60;;;;;;5027228;28;20491;-70
2022/07/10 11:05:20;;;;;;;3.90;2.50;;;45.40;11.60;;;;;;5025623;28;20112;-69
2022/07/10 11:07:59;;;;;;;4.97;1.10;;;45.60;11.40;;;;;;5026304;28;20052;-69
2022/07/10 11:10:41;;;;;;;1.95;0.80;;;45.80;11.00;;;;;;5022365;28;20041;-68
2022/07/10 11:13:08;;;;;;;6.35;1.70;;;45.90;10.90;;;;;;5022961;28;20483;-69
2022/07/10 11:15:42;;;;;;;6.07;1.92;;;45.90;11.30;;;;;;5026401;28;20061;-69
2022/07/10 11:18:11;;;;;;;3.60;2.35;;;46.20;10.60;;;;;;5021405;28;20130;-69
2022/07/10 11:20:37;;;;;;;3.50;0.90;;;46.10;11.20;;;;;;5023394;28;20034;-68
2022/07/10 11:23:36;;;;;;;6.72;1.40;;;46.30;11.30;;;;;;5022606;28;20029;-69
2022/07/10 11:26:10;;;;;;;3.83;1.10;;;46.40;11.10;;;;;;5018336;28;20492;-69
2022/07/10 11:28:57;;;;;;;2.28;0.82;;;46.30;10.80;;;;;;5025057;28;20045;-69
2022/07/10 11:31:24;;;;;;;4.28;0.88;;;46.40;10.30;;;;;;5024370;28;20393;-69
2022/07/10 11:33:53;;;;;;;3.00;0.90;;;46.30;11.00;;;;;;5026433;28;20021;-70
2022/07/10 11:36:28;;;;;;;3.17;1.10;;;46.50;10.80;;;;;;5024835;28;20430;-69
2022/07/10 11:38:58;;;;;;;3.65;0.90;;;46.40;10.60;;;;;;5021746;28;21937;-69
2022/07/10 11:41:24;;;;;;;3.47;1.20;;;46.30;10.80;;;;;;5024159;28;20056;-70
2022/07/10 11:43:52;;;;;;;5.80;1.00;;;46.30;11.00;;;;;;5028305;28;20484;-69
2022/07/10 11:46:21;;;;;;;5.35;1.00;;;46.20;11.00;;;;;;5027716;28;20095;-68
2022/07/10 11:48:49;;;;;;;7.22;5.78;;;46.30;10.90;;;;;;5024649;28;20100;-69
2022/07/10 11:51:27;;;;;;;3.90;1.10;;;46.50;11.00;;;;;;5026583;28;20528;-69
2022/07/10 11:54:04;;;;;;;14.15;11.40;;;46.70;10.60;;;;;;5024937;28;20684;-69
2022/07/10 11:56:36;;;;;;;3.00;1.23;;;46.90;10.20;;;;;;5025959;28;20033;-69
2022/07/10 11:59:10;;;;;;;2.88;0.90;;;47.00;9.50;;;;;;5031960;28;20141;-68
2022/07/10 12:01:44;;;;;;;9.68;1.05;;;46.90;10.20;;;;;;5026275;28;20033;-68
2022/07/10 12:04:11;;;;;;;2.33;1.00;;;47.00;10.40;;;;;;5025469;28;20044;-68
2022/07/10 12:06:39;;;;;;;5.25;1.08;;;47.00;10.10;;;;;;5026091;28;20065;-69
2022/07/10 12:09:08;;;;;;;6.05;1.08;;;46.90;10.50;;;;;;5025459;28;20045;-69
2022/07/10 12:11:35;;;;;;;4.53;0.90;;;46.90;10.50;;;;;;5027392;28;20021;-68
2022/07/10 12:14:14;;;;;;;3.35;0.90;;;47.10;10.30;;;;;;5017004;28;20038;-68
2022/07/10 12:16:44;;;;;;;7.35;4.78;;;47.30;10.30;;;;;;5022871;28;20789;-71
2022/07/10 12:19:13;;;;;;;2.05;0.85;;;47.40;10.30;;;;;;5025366;28;20072;-69
2022/07/10 12:21:41;;;;;;;6.15;1.00;;;47.40;10.00;;;;;;5025976;28;20507;-69
2022/07/10 12:24:08;;;;;;;8.50;2.97;;;47.30;10.50;;;;;;5024301;28;20037;-67
2022/07/10 12:26:38;;;;;;;5.22;0.90;;;47.40;10.60;;;;;;5027191;28;20076;-68
2022/07/10 12:29:05;;;;;;;3.42;0.90;;;47.60;10.30;;;;;;5023112;28;20029;-70
2022/07/10 12:31:33;;;;;;;3.10;0.80;;;47.70;10.20;;;;;;5028258;28;20041;-69
2022/07/10 12:34:04;;;;;;;2.88;0.90;;;47.30;10.00;;;;;;5018724;28;20116;-68
2022/07/10 12:36:51;;;;;;;2.22;0.80;;;47.00;9.70;;;;;;5026735;28;20040;-68
2022/07/10 12:39:23;;;;;;;3.00;0.70;;;46.90;10.30;;;;;;5020098;28;20047;-68
2022/07/10 12:41:56;;;;;;;4.00;0.90;;;46.40;10.40;;;;;;5025511;28;20025;-68
2022/07/10 12:44:42;;;;;;;2.95;0.90;;;46.10;10.90;;;;;;5026292;28;20521;-69
2022/07/10 12:47:13;;;;;;;2.30;0.80;;;45.90;10.90;;;;;;5020823;28;20124;-68
2022/07/10 12:50:11;;;;;;;2.97;0.90;;;45.70;11.20;;;;;;5025532;28;20038;-68
2022/07/10 12:52:39;;;;;;;1.67;0.80;;;45.60;11.20;;;;;;5023209;28;20041;-68
2022/07/10 12:55:15;;;;;;;3.43;0.70;;;45.50;11.10;;;;;;5012826;28;20137;-69
2022/07/10 12:58:04;;;;;;;2.42;0.80;;;45.30;11.40;;;;;;5018241;28;20038;-68
2022/07/10 13:00:34;;;;;;;2.13;0.70;;;45.30;11.80;;;;;;5017008;28;20030;-69
2022/07/10 13:03:02;;;;;;;2.13;0.70;;;44.90;11.50;;;;;;5017635;28;20180;-68
2022/07/10 13:05:41;;;;;;;3.60;0.80;;;44.80;11.60;;;;;;5016606;28;20026;-69